createdAt,value
2022-10-17T00:01:06.710Z,85.57
2022-10-17T00:03:38.741Z,86.06
2022-10-17T00:06:13.061Z,86.01
2022-10-17T00:08:44.769Z,86.20
2022-10-17T00:11:19.024Z,86.50
2022-10-17T00:13:53.582Z,86.27
2022-10-17T00:16:27.591Z,86.45
2022-10-17T00:18:59.520Z,86.55
2022-10-17T00:21:30.895Z,86.61
2022-10-17T00:24:02.185Z,86.47
2022-10-17T00:26:33.438Z,86.69
2022-10-17T00:29:05.000Z,86.72
2022-10-17T00:31:36.336Z,86.63
2022-10-17T00:34:07.576Z,86.69
2022-10-17T00:36:38.892Z,86.70
2022-10-17T00:39:10.141Z,86.66
2022-10-17T00:41:41.513Z,86.74
2022-10-17T00:44:30.997Z,86.48
2022-10-17T00:47:07.721Z,86.79
2022-10-17T00:49:39.605Z,87.08
2022-10-17T00:52:23.807Z,86.97
2022-10-17T00:55:12.134Z,87.20
2022-10-17T00:57:45.763Z,87.14
2022-10-17T01:00:17.957Z,87.28
2022-10-17T01:02:49.269Z,87.03
2022-10-17T01:05:21.113Z,87.51
2022-10-17T01:07:54.017Z,87.53
2022-10-17T01:10:32.968Z,87.36
2022-10-17T01:13:21.760Z,87.54
2022-10-17T01:16:10.115Z,87.34
2022-10-17T01:18:53.681Z,86.93
2022-10-17T01:21:38.098Z,86.90
2022-10-17T01:24:31.293Z,86.93
2022-10-17T01:27:25.823Z,86.47
2022-10-17T01:30:34.685Z,86.76
2022-10-17T01:33:53.191Z,86.65
2022-10-17T01:36:50.622Z,86.98
2022-10-17T01:39:36.813Z,86.46
2022-10-17T01:42:18.597Z,87.04
2022-10-17T01:44:57.557Z,86.82
2022-10-17T01:47:32.301Z,86.94
2022-10-17T01:50:10.728Z,86.55
2022-10-17T01:52:48.629Z,86.58
2022-10-17T01:55:25.251Z,86.55
2022-10-17T01:58:03.084Z,86.31
2022-10-17T02:00:35.645Z,85.96
2022-10-17T02:03:12.102Z,86.23
2022-10-17T02:05:44.675Z,86.23
2022-10-17T02:08:26.451Z,86.10
2022-10-17T02:11:03.926Z,86.04
2022-10-17T02:17:02.172Z,85.71
2022-10-17T02:19:39.409Z,85.69
2022-10-17T02:22:35.170Z,85.72
2022-10-17T02:25:45.638Z,85.84
2022-10-17T02:28:42.283Z,85.88
2022-10-17T02:31:24.827Z,85.65
2022-10-17T02:34:02.194Z,85.53
2022-10-17T02:36:42.770Z,85.72
2022-10-17T02:39:16.137Z,85.82
2022-10-17T02:41:50.930Z,85.46
2022-10-17T02:44:23.211Z,85.29
2022-10-17T02:47:11.154Z,85.42
2022-10-17T02:49:49.996Z,85.20
2022-10-17T02:52:28.950Z,85.06
2022-10-17T02:55:08.258Z,85.07
2022-10-17T02:57:44.801Z,85.46
2022-10-17T03:00:18.839Z,85.28
2022-10-17T03:02:52.279Z,85.34
2022-10-17T03:05:29.184Z,85.59
2022-10-17T03:08:00.449Z,85.31
2022-10-17T03:10:31.753Z,85.52
2022-10-17T03:13:03.171Z,85.80
2022-10-17T03:15:34.441Z,85.55
2022-10-17T03:18:05.906Z,85.86
2022-10-17T03:20:37.362Z,85.85
2022-10-17T03:23:08.693Z,85.71
2022-10-17T03:25:41.559Z,85.76
2022-10-17T03:28:12.828Z,86.08
2022-10-17T03:30:44.182Z,85.98
2022-10-17T03:33:15.509Z,85.93
2022-10-17T03:35:46.856Z,86.20
2022-10-17T03:38:18.174Z,86.29
2022-10-17T03:40:56.362Z,86.29
2022-10-17T03:43:27.767Z,86.32
2022-10-17T03:46:00.234Z,86.44
2022-10-17T03:48:32.125Z,86.33
2022-10-17T03:51:08.957Z,86.55
2022-10-17T03:53:40.302Z,86.43
2022-10-17T03:56:20.260Z,86.72
2022-10-17T03:58:51.794Z,86.61
2022-10-17T04:01:23.496Z,86.72
2022-10-17T04:03:56.473Z,86.87
2022-10-17T04:06:27.867Z,86.77
2022-10-17T04:08:59.510Z,86.86
2022-10-17T04:11:30.798Z,86.92
2022-10-17T04:14:02.272Z,87.08
2022-10-17T04:16:33.627Z,87.20
2022-10-17T04:19:05.076Z,87.30
2022-10-17T04:21:36.340Z,87.13
2022-10-17T04:24:10.727Z,87.47
2022-10-17T04:26:42.239Z,87.63
2022-10-17T04:29:13.560Z,87.94
2022-10-17T04:31:44.886Z,88.13
2022-10-17T04:34:16.443Z,88.09
2022-10-17T04:36:47.741Z,88.51
2022-10-17T04:39:19.035Z,88.63
2022-10-17T04:41:50.332Z,88.42
2022-10-17T04:44:21.781Z,88.63
2022-10-17T04:46:53.042Z,88.64
2022-10-17T04:49:24.319Z,88.52
2022-10-17T04:51:55.568Z,88.57
2022-10-17T04:54:26.827Z,89.12
2022-10-17T04:56:58.107Z,88.96
2022-10-17T04:59:29.698Z,89.24
2022-10-17T05:02:00.977Z,89.08
2022-10-17T05:04:32.273Z,89.16
2022-10-17T05:07:03.859Z,89.19
2022-10-17T05:09:35.200Z,88.93
2022-10-17T05:12:09.493Z,88.92
2022-10-17T05:14:41.802Z,88.99
2022-10-17T05:17:13.065Z,88.85
2022-10-17T05:19:44.334Z,88.93
2022-10-17T05:22:15.636Z,89.06
2022-10-17T05:24:47.055Z,88.67
2022-10-17T05:27:18.314Z,88.83
2022-10-17T05:29:49.564Z,88.82
2022-10-17T05:32:20.814Z,88.89
2022-10-17T05:34:52.134Z,88.80
2022-10-17T05:37:23.667Z,89.05
2022-10-17T05:39:55.006Z,89.26
2022-10-17T05:42:26.472Z,89.25
2022-10-17T05:44:58.322Z,89.30
2022-10-17T05:47:29.782Z,89.31
2022-10-17T05:50:01.191Z,89.70
2022-10-17T05:52:32.672Z,89.88
2022-10-17T05:55:05.650Z,90.10
2022-10-17T05:57:37.035Z,89.80
2022-10-17T06:00:09.106Z,90.29
2022-10-17T06:02:40.362Z,90.46
2022-10-17T06:05:12.337Z,90.88
2022-10-17T06:07:43.908Z,90.38
2022-10-17T06:10:17.263Z,90.99
2022-10-17T06:12:48.585Z,91.17
2022-10-17T06:15:19.877Z,91.40
2022-10-17T06:17:51.138Z,91.72
2022-10-17T06:20:22.381Z,91.74
2022-10-17T06:22:53.640Z,91.86
2022-10-17T06:25:24.922Z,91.77
2022-10-17T06:27:56.215Z,91.94
2022-10-17T06:30:27.885Z,91.73
2022-10-17T06:32:59.188Z,91.89
2022-10-17T06:35:30.441Z,91.91
2022-10-17T06:38:03.055Z,92.12
2022-10-17T06:40:34.338Z,92.13
2022-10-17T06:43:05.753Z,92.28
2022-10-17T06:45:39.577Z,92.16
2022-10-17T06:48:10.832Z,92.11
2022-10-17T06:50:42.170Z,92.34
2022-10-17T06:53:13.430Z,92.41
2022-10-17T06:55:44.715Z,91.96
2022-10-17T06:58:15.969Z,92.07
2022-10-17T07:00:47.297Z,92.33
2022-10-17T07:03:18.679Z,92.25
2022-10-17T07:05:52.150Z,91.61
2022-10-17T07:08:24.297Z,91.90
2022-10-17T07:10:56.564Z,91.78
2022-10-17T07:13:27.823Z,91.45
2022-10-17T07:16:01.671Z,91.32
2022-10-17T07:18:32.935Z,90.98
2022-10-17T07:21:04.900Z,90.72
2022-10-17T07:23:37.182Z,90.36
2022-10-17T07:26:12.529Z,90.23
2022-10-17T07:28:46.023Z,90.11
2022-10-17T07:31:19.251Z,90.34
2022-10-17T07:33:51.245Z,90.18
2022-10-17T07:36:22.506Z,89.79
2022-10-17T07:38:53.899Z,89.46
2022-10-17T07:41:25.153Z,89.16
2022-10-17T07:43:56.415Z,89.01
2022-10-17T07:46:27.710Z,88.91
2022-10-17T07:48:58.975Z,88.95
2022-10-17T07:51:30.316Z,88.60
2022-10-17T07:54:01.637Z,88.24
2022-10-17T07:56:33.389Z,87.17
2022-10-17T07:59:08.341Z,87.60
2022-10-17T08:01:40.771Z,87.07
2022-10-17T08:04:12.120Z,86.92
2022-10-17T08:06:43.656Z,86.39
2022-10-17T08:09:15.630Z,86.50
2022-10-17T08:11:47.220Z,86.29
2022-10-17T08:14:18.522Z,85.48
2022-10-17T08:16:49.823Z,85.50
2022-10-17T08:19:21.115Z,85.33
2022-10-17T08:21:54.229Z,84.50
2022-10-17T08:24:25.653Z,84.14
2022-10-17T08:26:58.233Z,84.53
2022-10-17T08:29:29.671Z,84.51
2022-10-17T08:32:02.368Z,83.49
2022-10-17T08:34:34.750Z,83.20
2022-10-17T08:37:06.116Z,83.40
2022-10-17T08:39:37.495Z,83.07
2022-10-17T08:42:08.714Z,82.63
2022-10-17T08:44:56.728Z,82.39
2022-10-17T08:47:44.987Z,81.28
2022-10-17T08:50:43.789Z,81.29
2022-10-17T08:53:34.712Z,80.85
2022-10-17T08:56:19.911Z,80.82
2022-10-17T08:58:56.370Z,80.72
2022-10-17T09:01:50.070Z,79.54
2022-10-17T09:04:39.470Z,79.78
2022-10-17T09:07:27.325Z,79.54
2022-10-17T09:10:15.758Z,79.17
2022-10-17T09:13:25.218Z,78.40
2022-10-17T09:16:07.954Z,78.43
2022-10-17T09:19:01.667Z,77.44
2022-10-17T09:22:00.746Z,77.38
2022-10-17T09:24:37.939Z,77.55
2022-10-17T09:27:36.909Z,76.35
2022-10-17T09:30:49.221Z,75.08
2022-10-17T09:33:35.397Z,75.84
2022-10-17T09:36:33.803Z,75.49
2022-10-17T09:39:12.358Z,75.37
2022-10-17T09:41:49.379Z,74.93
2022-10-17T09:44:35.452Z,74.81
2022-10-17T09:47:22.519Z,74.30
2022-10-17T09:49:54.058Z,74.00
2022-10-17T09:52:30.597Z,73.48
2022-10-17T09:55:15.867Z,73.35
2022-10-17T09:57:58.639Z,72.39
2022-10-17T10:00:32.922Z,72.77
2022-10-17T10:03:23.628Z,72.03
2022-10-17T10:06:12.615Z,72.61
2022-10-17T10:08:53.241Z,72.24
2022-10-17T10:11:44.150Z,72.45
2022-10-17T10:14:33.302Z,71.63
2022-10-17T10:17:24.137Z,71.98
2022-10-17T10:19:55.866Z,71.35
2022-10-17T10:22:27.751Z,71.11
2022-10-17T10:25:13.300Z,70.36
2022-10-17T10:27:47.034Z,70.30
2022-10-17T10:30:31.439Z,69.78
2022-10-17T10:33:05.019Z,70.21
2022-10-17T10:35:37.785Z,69.90
2022-10-17T10:38:17.597Z,69.83
2022-10-17T10:40:52.911Z,69.67
2022-10-17T10:43:32.840Z,68.90
2022-10-17T10:46:22.719Z,69.21
2022-10-17T10:49:01.787Z,69.18
2022-10-17T10:51:39.631Z,69.12
2022-10-17T10:54:26.569Z,69.57
2022-10-17T10:57:01.134Z,69.56
2022-10-17T10:59:42.985Z,69.31
2022-10-17T11:02:42.714Z,69.40
2022-10-17T11:05:41.377Z,69.71
2022-10-17T11:08:42.989Z,69.25
2022-10-17T11:11:23.723Z,70.15
2022-10-17T11:14:04.291Z,69.65
2022-10-17T11:16:41.788Z,69.96
2022-10-17T11:19:33.819Z,69.04
2022-10-17T11:22:16.537Z,68.75
2022-10-17T11:24:59.516Z,68.65
2022-10-17T11:27:31.647Z,69.20
2022-10-17T11:30:03.845Z,69.02
2022-10-17T11:32:39.891Z,68.74
2022-10-17T11:35:24.954Z,69.03
2022-10-17T11:38:01.765Z,68.69
2022-10-17T11:40:40.544Z,69.08
2022-10-17T11:43:20.110Z,68.68
2022-10-17T11:46:25.273Z,68.50
2022-10-17T11:49:04.047Z,69.22
2022-10-17T11:52:02.240Z,69.24
2022-10-17T11:54:45.115Z,69.47
2022-10-17T11:57:22.056Z,69.00
2022-10-17T12:00:08.599Z,69.42
2022-10-17T12:02:56.025Z,69.59
2022-10-17T12:05:36.977Z,69.65
2022-10-17T12:08:17.318Z,69.29
2022-10-17T12:11:14.751Z,69.31
2022-10-17T12:13:52.551Z,69.69
2022-10-17T12:16:23.761Z,69.99
2022-10-17T12:19:00.931Z,69.65
2022-10-17T12:21:55.103Z,69.21
2022-10-17T12:24:54.277Z,69.79
2022-10-17T12:27:46.129Z,70.35
2022-10-17T12:30:23.473Z,70.52
2022-10-17T12:33:06.525Z,70.12
2022-10-17T12:35:39.341Z,70.54
2022-10-17T12:38:24.866Z,70.76
2022-10-17T12:40:57.869Z,70.89
2022-10-17T12:43:29.200Z,71.07
2022-10-17T12:46:02.153Z,71.22
2022-10-17T12:48:36.277Z,71.37
2022-10-17T12:51:35.303Z,71.05
2022-10-17T12:54:15.057Z,71.25
2022-10-17T12:56:48.737Z,71.44
2022-10-17T12:59:23.911Z,71.66
2022-10-17T13:01:59.083Z,71.52
2022-10-17T13:04:31.133Z,71.67
2022-10-17T13:07:03.773Z,72.37
2022-10-17T13:09:43.335Z,74.73
2022-10-17T13:12:22.861Z,76.53
2022-10-17T13:14:54.925Z,78.22
2022-10-17T13:17:30.711Z,80.27
2022-10-17T13:20:02.951Z,81.41
2022-10-17T13:22:34.237Z,82.43
2022-10-17T13:25:26.298Z,83.20
2022-10-17T13:28:06.876Z,83.73
2022-10-17T13:30:38.221Z,84.17
2022-10-17T13:33:31.122Z,84.83
2022-10-17T13:36:06.599Z,85.36
2022-10-17T13:38:41.719Z,85.58
2022-10-17T13:41:34.838Z,86.35
2022-10-17T13:44:19.489Z,87.12
2022-10-17T13:46:51.797Z,86.91
2022-10-17T13:49:33.801Z,87.83
2022-10-17T13:52:07.339Z,88.83
2022-10-17T13:54:40.591Z,89.39
2022-10-17T13:57:24.190Z,90.53
2022-10-17T13:59:58.854Z,91.51
2022-10-17T14:02:31.833Z,92.54
2022-10-17T14:05:18.658Z,93.08
2022-10-17T14:08:14.233Z,93.57
2022-10-17T14:10:47.682Z,94.07
2022-10-17T14:13:27.774Z,94.08
2022-10-17T14:16:01.330Z,94.08
2022-10-17T14:18:36.677Z,94.06
2022-10-17T14:21:34.345Z,94.21
2022-10-17T14:24:26.187Z,94.72
2022-10-17T14:26:59.471Z,94.57
2022-10-17T14:29:49.645Z,95.25
2022-10-17T14:32:22.111Z,94.63
2022-10-17T14:35:05.601Z,94.89
2022-10-17T14:37:49.298Z,95.42
2022-10-17T14:40:23.597Z,95.01
2022-10-17T14:42:57.994Z,95.48
2022-10-17T14:45:36.224Z,95.66
2022-10-17T14:48:13.484Z,95.49
2022-10-17T14:51:12.542Z,95.99
2022-10-17T14:54:04.952Z,95.85
2022-10-17T14:56:40.890Z,96.01
2022-10-17T14:59:21.420Z,96.26
2022-10-17T15:01:56.929Z,95.94
2022-10-17T15:04:28.211Z,96.83
2022-10-17T15:06:59.542Z,96.54
2022-10-17T15:09:31.145Z,95.96
2022-10-17T15:12:04.038Z,96.68
2022-10-17T15:14:35.323Z,96.26
2022-10-17T15:17:15.704Z,96.84
2022-10-17T15:19:48.708Z,96.19
2022-10-17T15:22:20.008Z,96.86
2022-10-17T15:24:51.363Z,96.61
2022-10-17T15:27:24.756Z,96.73
2022-10-17T15:29:56.043Z,96.94
2022-10-17T15:32:27.358Z,96.71
2022-10-17T15:34:58.640Z,96.54
2022-10-17T15:37:33.854Z,97.20
2022-10-17T15:40:06.051Z,96.94
2022-10-17T15:42:37.297Z,96.99
2022-10-17T15:45:15.526Z,96.82
2022-10-17T15:47:58.994Z,96.89
2022-10-17T15:50:30.552Z,97.09
2022-10-17T15:53:01.851Z,97.42
2022-10-17T15:55:33.134Z,97.02
2022-10-17T15:58:04.546Z,97.25
2022-10-17T16:00:35.873Z,97.47
2022-10-17T16:03:07.192Z,97.24
2022-10-17T16:05:38.460Z,97.70
2022-10-17T16:08:09.729Z,97.38
2022-10-17T16:10:41.129Z,97.62
2022-10-17T16:13:21.082Z,97.40
2022-10-17T16:15:52.898Z,97.82
2022-10-17T16:18:24.158Z,97.57
2022-10-17T16:20:55.418Z,97.66
2022-10-17T16:23:26.673Z,98.02
2022-10-17T16:25:57.930Z,97.94
2022-10-17T16:28:29.238Z,97.33
2022-10-17T16:31:00.835Z,97.72
2022-10-17T16:33:32.078Z,97.94
2022-10-17T16:36:03.482Z,98.15
2022-10-17T16:38:34.875Z,98.24
2022-10-17T16:41:23.835Z,98.00
2022-10-17T16:43:57.664Z,97.90
2022-10-17T16:46:30.669Z,97.97
2022-10-17T16:49:04.154Z,98.22
2022-10-17T16:51:35.835Z,98.36
2022-10-17T16:54:07.208Z,98.23
2022-10-17T16:56:38.604Z,98.05
2022-10-17T16:59:11.513Z,98.30
2022-10-17T17:01:42.916Z,98.09
2022-10-17T17:04:14.233Z,98.21
2022-10-17T17:09:22.058Z,98.62
2022-10-17T17:11:53.331Z,98.12
2022-10-17T17:14:24.616Z,98.36
2022-10-17T17:16:55.866Z,98.47
2022-10-17T17:19:27.153Z,98.69
2022-10-17T17:21:58.411Z,98.68
2022-10-17T17:24:29.678Z,98.50
2022-10-17T17:27:00.934Z,98.85
2022-10-17T17:29:32.409Z,98.34
2022-10-17T17:32:03.948Z,98.47
2022-10-17T17:34:37.060Z,98.52
2022-10-17T17:37:08.346Z,98.73
2022-10-17T17:39:39.643Z,98.99
2022-10-17T17:42:10.945Z,98.87
2022-10-17T17:44:42.305Z,98.76
2022-10-17T17:47:14.030Z,98.68
2022-10-17T17:49:45.334Z,98.83
2022-10-17T17:52:16.692Z,98.96
2022-10-17T17:54:47.958Z,98.58
2022-10-17T17:57:19.210Z,98.76
2022-10-17T17:59:50.466Z,98.82
2022-10-17T18:02:21.750Z,99.00
2022-10-17T18:04:53.013Z,98.74
2022-10-17T18:07:24.361Z,98.85
2022-10-17T18:09:56.889Z,98.70
2022-10-17T18:12:29.338Z,98.62
2022-10-17T18:15:02.037Z,98.84
2022-10-17T18:17:33.481Z,98.87
2022-10-17T18:20:06.125Z,98.87
2022-10-17T18:22:37.495Z,98.84
2022-10-17T18:25:08.942Z,98.93
2022-10-17T18:27:40.245Z,99.07
2022-10-17T18:30:11.722Z,99.17
2022-10-17T18:32:42.991Z,98.81
2022-10-17T18:35:14.441Z,99.13
2022-10-17T18:37:45.768Z,99.04
2022-10-17T18:40:17.199Z,98.78
2022-10-17T18:42:48.450Z,98.88
2022-10-17T18:45:19.809Z,98.70
2022-10-17T18:47:52.710Z,98.77
2022-10-17T18:50:24.659Z,99.05
2022-10-17T18:52:56.038Z,99.19
2022-10-17T18:55:27.304Z,99.18
2022-10-17T18:58:00.007Z,98.83
2022-10-17T19:00:31.353Z,98.86
2022-10-17T19:03:04.726Z,98.92
2022-10-17T19:05:38.501Z,98.76
2022-10-17T19:08:09.744Z,98.72
2022-10-17T19:10:42.594Z,98.84
2022-10-17T19:13:16.890Z,98.48
2022-10-17T19:15:50.590Z,98.60
2022-10-17T19:18:21.834Z,98.91
2022-10-17T19:20:53.114Z,98.62
2022-10-17T19:23:24.373Z,98.96
2022-10-17T19:26:01.125Z,98.73
2022-10-17T19:28:33.832Z,98.76
2022-10-17T19:31:06.122Z,98.53
2022-10-17T19:33:37.583Z,98.62
2022-10-17T19:36:13.315Z,98.71
2022-10-17T19:38:44.637Z,98.71
2022-10-17T19:41:16.500Z,98.36
2022-10-17T19:43:48.203Z,98.22
2022-10-17T19:46:23.553Z,98.22
2022-10-17T19:48:55.321Z,98.18
2022-10-17T19:51:27.542Z,98.37
2022-10-17T19:54:00.398Z,98.42
2022-10-17T19:56:37.539Z,98.19
2022-10-17T19:59:11.918Z,98.22
2022-10-17T20:01:44.627Z,98.13
2022-10-17T20:04:15.981Z,98.14
2022-10-17T20:06:47.233Z,98.32
2022-10-17T20:09:18.549Z,97.91
2022-10-17T20:11:49.803Z,97.91
2022-10-17T20:14:21.151Z,97.84
2022-10-17T20:16:52.633Z,97.75
2022-10-17T20:19:24.051Z,97.75
2022-10-17T20:21:55.315Z,97.94
2022-10-17T20:24:26.605Z,97.79
2022-10-17T20:26:57.934Z,97.77
2022-10-17T20:29:29.219Z,97.45
2022-10-17T20:32:00.851Z,97.71
2022-10-17T20:34:35.392Z,97.73
2022-10-17T20:37:06.663Z,97.48
2022-10-17T20:39:37.993Z,97.84
2022-10-17T20:42:09.305Z,97.65
2022-10-17T20:44:40.646Z,97.93
2022-10-17T20:47:21.079Z,97.79
2022-10-17T20:50:04.655Z,97.92
2022-10-17T20:52:36.038Z,98.08
2022-10-17T20:55:07.723Z,98.05
2022-10-17T20:57:39.000Z,97.93
2022-10-17T21:00:11.017Z,97.89
2022-10-17T21:02:42.268Z,98.15
2022-10-17T21:05:13.780Z,97.93
2022-10-17T21:07:45.114Z,98.10
2022-10-17T21:10:35.217Z,98.12
2022-10-17T21:13:06.837Z,98.04
2022-10-17T21:15:38.098Z,97.59
2022-10-17T21:18:09.368Z,97.92
2022-10-17T21:20:40.617Z,97.92
2022-10-17T21:23:11.849Z,98.01
2022-10-17T21:25:43.822Z,97.96
2022-10-17T21:28:15.159Z,98.52
2022-10-17T21:30:46.415Z,98.60
2022-10-17T21:33:17.693Z,98.91
2022-10-17T21:35:54.726Z,98.85
2022-10-17T21:38:26.032Z,98.72
2022-10-17T21:40:57.307Z,98.66
2022-10-17T21:43:28.574Z,98.88
2022-10-17T21:46:08.249Z,98.88
2022-10-17T21:48:39.861Z,99.15
2022-10-17T21:51:14.997Z,99.15
2022-10-17T21:53:46.750Z,99.04
2022-10-17T21:56:20.664Z,98.96
2022-10-17T21:58:51.926Z,98.73
2022-10-17T22:01:26.103Z,98.71
2022-10-17T22:03:59.782Z,98.65
2022-10-17T22:06:39.751Z,98.86
2022-10-17T22:09:24.409Z,98.59
2022-10-17T22:11:56.870Z,98.75
2022-10-17T22:14:28.390Z,99.03
2022-10-17T22:17:01.342Z,98.99
2022-10-17T22:19:32.710Z,98.77
2022-10-17T22:22:03.948Z,98.50
2022-10-17T22:24:35.462Z,98.45
2022-10-17T22:27:06.731Z,98.64
2022-10-17T22:29:39.548Z,98.47
2022-10-17T22:32:10.848Z,98.12
2022-10-17T22:34:42.265Z,97.90
2022-10-17T22:37:13.613Z,97.98
2022-10-17T22:39:44.961Z,98.10
2022-10-17T22:42:16.269Z,98.00
2022-10-17T22:44:47.740Z,98.04
2022-10-17T22:47:18.989Z,98.24
2022-10-17T22:49:50.357Z,98.22
2022-10-17T22:52:21.856Z,98.05
2022-10-17T22:54:53.122Z,98.54
2022-10-17T22:57:24.364Z,98.05
2022-10-17T22:59:55.730Z,98.39
2022-10-17T23:02:27.158Z,97.92
2022-10-17T23:04:59.211Z,98.07
2022-10-17T23:07:31.048Z,98.06
2022-10-17T23:10:03.247Z,97.91
2022-10-17T23:12:34.501Z,98.02
2022-10-17T23:15:06.278Z,98.16
2022-10-17T23:17:37.585Z,97.89
2022-10-17T23:20:09.118Z,98.17
2022-10-17T23:22:40.386Z,98.58
2022-10-17T23:25:11.675Z,98.53
2022-10-17T23:27:43.444Z,98.18
2022-10-17T23:30:15.081Z,98.01
2022-10-17T23:32:46.352Z,97.81
2022-10-17T23:35:17.770Z,98.21
2022-10-17T23:37:49.005Z,98.26
2022-10-17T23:40:20.285Z,98.26
2022-10-17T23:42:51.574Z,98.54
2022-10-17T23:45:22.966Z,98.54
2022-10-17T23:47:54.295Z,98.57
2022-10-17T23:50:25.648Z,98.52
2022-10-17T23:52:56.901Z,98.86
2022-10-17T23:55:28.170Z,98.35
2022-10-17T23:57:59.426Z,98.68
